Time;durP1;ratioP1;P1;durP2;ratioP2;P2;SDS_P1;SDS_P2;PMS_P1;PMS_P2;Temp;Humidity;BMP_temperature;BMP_pressure;BME280_temperature;BME280_humidity;BME280_pressure;Samples;Min_cycle;Max_cycle;Signal;HPM_P1;HPM_P2
2024/02/04 00:00:18;;;;;;;84.38;22.58;;;;;;;;;;5124458;28;20024;-63
2024/02/04 00:02:44;;;;;;;65.85;23.02;;;;;;;;;;5115993;28;20100;-63
2024/02/04 00:05:09;;;;;;;57.13;21.73;;;;;;;;;;5116009;28;20028;-64
2024/02/04 00:07:35;;;;;;;55.63;19.05;;;;;;;;;;5122258;28;20024;-64
2024/02/04 00:10:00;;;;;;;62.33;22.07;;;;;;;;;;5106098;28;20551;-63
2024/02/04 00:12:26;;;;;;;64.32;20.40;;;;;;;;;;5103309;28;20024;-63
2024/02/04 00:14:52;;;;;;;64.82;20.80;;;;;;;;;;5114477;28;20054;-63
2024/02/04 00:17:17;;;;;;;58.07;22.37;;;;;;;;;;5124567;28;20051;-63
2024/02/04 00:19:43;;;;;;;61.00;22.27;;;;;;;;;;5116083;28;20035;-63
2024/02/04 00:22:09;;;;;;;53.30;18.63;;;;;;;;;;5115469;28;20032;-64
2024/02/04 00:24:34;;;;;;;55.00;19.10;;;;;;;;;;5115146;28;20600;-62
2024/02/04 00:26:59;;;;;;;55.47;20.50;;;;;;;;;;5117671;28;20040;-62
2024/02/04 00:29:25;;;;;;;64.70;20.55;;;;;;;;;;5115604;28;20028;-62
2024/02/04 00:31:51;;;;;;;69.07;20.80;;;;;;;;;;5114110;28;20024;-62
2024/02/04 00:34:16;;;;;;;69.40;22.85;;;;;;;;;;5115720;28;20039;-62
2024/02/04 00:36:42;;;;;;;60.05;21.73;;;;;;;;;;5115711;28;20032;-63
2024/02/04 00:39:07;;;;;;;89.80;23.03;;;;;;;;;;5125033;28;20042;-63
2024/02/04 00:41:33;;;;;;;74.30;26.97;;;;;;;;;;5124579;28;20272;-63
2024/02/04 00:43:59;;;;;;;77.60;25.63;;;;;;;;;;5115262;28;20268;-62
2024/02/04 00:46:24;;;;;;;74.93;25.30;;;;;;;;;;5115512;28;20359;-62
2024/02/04 00:48:49;;;;;;;69.13;24.50;;;;;;;;;;5116399;28;20087;-63
2024/02/04 00:51:17;;;;;;;75.60;23.77;;;;;;;;;;5121165;28;20032;-62
2024/02/04 00:53:43;;;;;;;77.93;24.70;;;;;;;;;;5113824;28;20328;-62
2024/02/04 00:56:09;;;;;;;84.75;26.40;;;;;;;;;;5114982;28;20257;-62
2024/02/04 00:58:34;;;;;;;73.07;24.00;;;;;;;;;;5124158;28;20036;-63
2024/02/04 01:01:00;;;;;;;66.38;23.52;;;;;;;;;;5104946;28;20276;-63
2024/02/04 01:03:26;;;;;;;63.78;22.08;;;;;;;;;;5115772;28;20400;-62
2024/02/04 01:05:51;;;;;;;77.10;23.07;;;;;;;;;;5115471;28;20035;-63
2024/02/04 01:08:17;;;;;;;75.75;24.90;;;;;;;;;;5112152;28;20028;-61
2024/02/04 01:10:42;;;;;;;75.20;22.60;;;;;;;;;;5116738;28;20028;-62
2024/02/04 01:13:08;;;;;;;74.50;22.75;;;;;;;;;;5115918;28;20020;-62
2024/02/04 01:15:33;;;;;;;70.78;23.63;;;;;;;;;;5114817;28;20047;-62
2024/02/04 01:17:59;;;;;;;65.87;23.93;;;;;;;;;;5106407;28;20032;-62
2024/02/04 01:20:24;;;;;;;82.55;26.23;;;;;;;;;;5126325;28;20032;-61
2024/02/04 01:22:50;;;;;;;70.67;24.40;;;;;;;;;;5114469;28;20027;-62
2024/02/04 01:25:15;;;;;;;76.00;27.23;;;;;;;;;;5114280;28;20331;-63
2024/02/04 01:27:42;;;;;;;80.17;26.37;;;;;;;;;;5117490;28;20304;-62
2024/02/04 01:30:07;;;;;;;80.80;28.65;;;;;;;;;;5118740;28;20279;-61
2024/02/04 01:32:34;;;;;;;86.67;27.73;;;;;;;;;;5119296;28;20024;-61
2024/02/04 01:34:59;;;;;;;95.63;28.23;;;;;;;;;;5113672;28;20283;-63
2024/02/04 01:37:25;;;;;;;93.10;30.67;;;;;;;;;;5105410;28;20041;-62
2024/02/04 01:39:51;;;;;;;72.97;28.00;;;;;;;;;;5134667;28;20030;-62
2024/02/04 01:42:17;;;;;;;86.88;27.73;;;;;;;;;;5121225;28;20031;-63
2024/02/04 01:44:43;;;;;;;73.95;27.42;;;;;;;;;;5117388;28;20032;-62
2024/02/04 01:47:09;;;;;;;80.50;26.17;;;;;;;;;;5120380;28;20058;-62
2024/02/04 01:49:35;;;;;;;85.45;28.33;;;;;;;;;;5104367;28;20130;-62
2024/02/04 01:52:01;;;;;;;84.30;28.67;;;;;;;;;;5119519;28;20028;-62
2024/02/04 01:54:26;;;;;;;89.68;28.50;;;;;;;;;;5114208;28;20024;-62
2024/02/04 01:56:53;;;;;;;98.55;30.63;;;;;;;;;;5107564;28;20028;-61
2024/02/04 01:59:28;;;;;;;76.60;28.25;;;;;;;;;;5113859;28;20075;-62
2024/02/04 02:01:53;;;;;;;102.77;30.77;;;;;;;;;;5113770;28;20432;-62
2024/02/04 02:04:20;;;;;;;96.95;30.55;;;;;;;;;;5113378;28;21152;-61
2024/02/04 02:06:46;;;;;;;95.63;29.70;;;;;;;;;;5115087;28;20051;-63
2024/02/04 02:09:13;;;;;;;85.07;28.42;;;;;;;;;;5123911;28;20257;-62
2024/02/04 02:11:42;;;;;;;86.47;32.40;;;;;;;;;;5116254;28;20043;-61
2024/02/04 02:14:12;;;;;;;93.20;29.07;;;;;;;;;;5112743;28;20028;-62
2024/02/04 02:16:38;;;;;;;107.63;29.57;;;;;;;;;;5113497;28;20287;-61
2024/02/04 02:19:30;;;;;;;106.68;31.33;;;;;;;;;;5121145;28;20272;-62
2024/02/04 02:22:21;;;;;;;124.33;33.93;;;;;;;;;;5092861;28;20055;-62
2024/02/04 02:24:47;;;;;;;116.07;34.90;;;;;;;;;;5098917;28;20319;-61
2024/02/04 02:27:12;;;;;;;133.03;35.03;;;;;;;;;;5110791;28;20284;-61
2024/02/04 02:29:37;;;;;;;114.33;33.47;;;;;;;;;;5114089;28;20048;-62
2024/02/04 02:32:03;;;;;;;111.82;34.95;;;;;;;;;;5116160;28;20032;-61
2024/02/04 02:34:30;;;;;;;115.43;33.40;;;;;;;;;;5116746;28;20032;-62
2024/02/04 02:36:59;;;;;;;111.22;32.20;;;;;;;;;;5117944;28;20096;-62
2024/02/04 02:39:28;;;;;;;110.13;33.27;;;;;;;;;;5127646;28;20038;-62
2024/02/04 02:41:55;;;;;;;105.57;32.47;;;;;;;;;;5112621;28;20272;-61
2024/02/04 02:44:23;;;;;;;93.20;29.87;;;;;;;;;;5121550;28;20300;-61
2024/02/04 02:46:49;;;;;;;105.10;33.13;;;;;;;;;;5117534;28;20332;-62
2024/02/04 02:49:14;;;;;;;111.87;33.30;;;;;;;;;;5125927;28;20256;-61
2024/02/04 02:51:40;;;;;;;112.25;33.22;;;;;;;;;;5118197;28;20269;-62
2024/02/04 02:54:05;;;;;;;107.17;32.17;;;;;;;;;;5116134;28;20507;-61
2024/02/04 02:56:30;;;;;;;101.93;32.13;;;;;;;;;;5116596;28;20083;-62
2024/02/04 02:58:56;;;;;;;88.15;31.95;;;;;;;;;;5114513;28;20049;-61
2024/02/04 03:01:23;;;;;;;106.43;33.78;;;;;;;;;;5116279;28;20057;-61
2024/02/04 03:03:49;;;;;;;109.17;31.70;;;;;;;;;;5115734;28;20236;-61
2024/02/04 03:06:14;;;;;;;93.57;30.08;;;;;;;;;;5121517;28;20263;-62
2024/02/04 03:08:40;;;;;;;100.40;31.87;;;;;;;;;;5119452;28;20043;-61
2024/02/04 03:11:05;;;;;;;89.68;31.10;;;;;;;;;;5107683;28;20024;-61
2024/02/04 03:13:31;;;;;;;101.32;30.13;;;;;;;;;;5116658;28;20078;-62
2024/02/04 03:15:57;;;;;;;98.10;31.73;;;;;;;;;;5116998;28;20032;-62
2024/02/04 03:18:22;;;;;;;92.37;31.10;;;;;;;;;;5115833;28;20268;-61
2024/02/04 03:20:48;;;;;;;87.00;30.07;;;;;;;;;;5119001;28;20342;-61
2024/02/04 03:23:13;;;;;;;77.47;30.10;;;;;;;;;;5113402;28;20261;-62
2024/02/04 03:25:39;;;;;;;79.43;28.73;;;;;;;;;;5113320;28;20264;-62
2024/02/04 03:28:04;;;;;;;76.50;26.90;;;;;;;;;;5116701;28;20038;-63
2024/02/04 03:30:30;;;;;;;73.88;25.27;;;;;;;;;;5126374;28;20110;-62
2024/02/04 03:32:55;;;;;;;64.93;25.67;;;;;;;;;;5116078;28;20065;-61
2024/02/04 03:35:21;;;;;;;77.35;28.25;;;;;;;;;;5115070;28;20028;-62
2024/02/04 03:37:47;;;;;;;72.18;26.35;;;;;;;;;;5124219;28;20103;-62
2024/02/04 03:40:13;;;;;;;66.65;25.55;;;;;;;;;;5102744;28;20036;-62
2024/02/04 03:42:40;;;;;;;67.70;22.05;;;;;;;;;;5122800;28;20038;-61
2024/02/04 03:45:06;;;;;;;76.72;26.05;;;;;;;;;;5115323;28;20094;-62
2024/02/04 03:47:31;;;;;;;69.25;24.83;;;;;;;;;;5115413;28;20036;-62
2024/02/04 03:49:57;;;;;;;66.50;23.67;;;;;;;;;;5119550;28;20025;-62
2024/02/04 03:52:22;;;;;;;80.00;25.23;;;;;;;;;;5121170;28;20268;-62
2024/02/04 03:54:48;;;;;;;61.97;25.03;;;;;;;;;;5118495;28;20277;-61
2024/02/04 03:57:13;;;;;;;70.10;27.73;;;;;;;;;;5115480;28;20336;-61
2024/02/04 03:59:39;;;;;;;65.40;25.00;;;;;;;;;;5118521;28;20024;-62
2024/02/04 04:02:04;;;;;;;58.57;24.53;;;;;;;;;;5117435;28;20032;-61
2024/02/04 04:04:30;;;;;;;63.53;26.63;;;;;;;;;;5120358;28;20020;-61
2024/02/04 04:06:55;;;;;;;56.47;25.80;;;;;;;;;;5118566;28;20036;-62
2024/02/04 04:09:21;;;;;;;71.10;26.95;;;;;;;;;;5116011;28;20020;-61
2024/02/04 04:11:46;;;;;;;77.97;27.43;;;;;;;;;;5124981;27;20024;-61
2024/02/04 04:14:12;;;;;;;84.73;29.50;;;;;;;;;;5117056;28;20252;-61
2024/02/04 04:16:37;;;;;;;75.53;27.97;;;;;;;;;;5111393;28;20356;-61
2024/02/04 04:19:03;;;;;;;78.68;27.80;;;;;;;;;;5110612;28;20031;-61
2024/02/04 04:21:28;;;;;;;70.70;27.80;;;;;;;;;;5128600;28;20092;-65
2024/02/04 04:23:54;;;;;;;58.10;25.73;;;;;;;;;;5118060;28;20261;-60
2024/02/04 04:26:19;;;;;;;61.03;24.63;;;;;;;;;;5122666;28;20320;-61
2024/02/04 04:28:45;;;;;;;68.80;22.83;;;;;;;;;;5125355;28;20024;-61
2024/02/04 04:31:10;;;;;;;67.80;23.40;;;;;;;;;;5119885;28;20039;-62
2024/02/04 04:33:36;;;;;;;66.80;24.98;;;;;;;;;;5115503;28;20066;-61
2024/02/04 04:36:01;;;;;;;68.10;24.57;;;;;;;;;;5114152;28;20032;-61
2024/02/04 04:38:27;;;;;;;59.65;22.42;;;;;;;;;;5123705;28;20067;-62
2024/02/04 04:40:52;;;;;;;68.07;22.77;;;;;;;;;;5114289;28;20052;-61
2024/02/04 04:43:18;;;;;;;57.27;19.33;;;;;;;;;;5114187;28;20035;-62
2024/02/04 04:45:43;;;;;;;54.87;18.00;;;;;;;;;;5115183;28;20291;-62
2024/02/04 04:48:09;;;;;;;57.30;18.00;;;;;;;;;;5117388;28;20273;-62
2024/02/04 04:50:35;;;;;;;44.60;15.63;;;;;;;;;;5123033;28;20023;-61
2024/02/04 04:53:00;;;;;;;51.17;16.27;;;;;;;;;;5117908;28;20039;-62
2024/02/04 04:55:26;;;;;;;45.70;15.60;;;;;;;;;;5115042;28;20057;-61
2024/02/04 04:57:52;;;;;;;48.67;19.38;;;;;;;;;;5127317;28;20032;-61
2024/02/04 05:00:17;;;;;;;45.30;15.48;;;;;;;;;;5115172;28;20036;-60
2024/02/04 05:02:43;;;;;;;43.50;15.32;;;;;;;;;;5114779;28;20024;-61
2024/02/04 05:05:12;;;;;;;46.60;14.90;;;;;;;;;;5114885;28;20046;-61
2024/02/04 05:07:38;;;;;;;47.83;17.33;;;;;;;;;;5123699;28;20052;-61
2024/02/04 05:10:04;;;;;;;43.87;13.90;;;;;;;;;;5116907;28;20267;-61
2024/02/04 05:12:29;;;;;;;40.77;14.70;;;;;;;;;;5110689;28;20028;-61
2024/02/04 05:14:55;;;;;;;41.05;15.15;;;;;;;;;;5112968;28;20264;-62
2024/02/04 05:17:20;;;;;;;49.45;15.57;;;;;;;;;;5111522;28;20043;-62
2024/02/04 05:19:46;;;;;;;44.45;15.55;;;;;;;;;;5111926;28;20107;-60
2024/02/04 05:22:11;;;;;;;57.50;16.63;;;;;;;;;;5111655;28;20042;-61
2024/02/04 05:24:37;;;;;;;47.90;17.07;;;;;;;;;;5111104;28;20318;-62
2024/02/04 05:27:02;;;;;;;41.23;16.33;;;;;;;;;;5112891;28;20347;-60
2024/02/04 05:29:27;;;;;;;49.30;15.73;;;;;;;;;;5112629;28;20039;-62
2024/02/04 05:31:52;;;;;;;58.27;18.17;;;;;;;;;;5111041;28;20036;-61
2024/02/04 05:34:18;;;;;;;59.08;17.67;;;;;;;;;;5110790;28;20039;-62
2024/02/04 05:36:43;;;;;;;66.30;20.77;;;;;;;;;;5110946;28;20032;-61
2024/02/04 05:39:13;;;;;;;62.92;20.70;;;;;;;;;;5110864;28;20028;-60
2024/02/04 05:41:43;;;;;;;63.13;19.57;;;;;;;;;;5112380;28;20043;-61
2024/02/04 05:44:08;;;;;;;58.87;18.87;;;;;;;;;;5111025;28;20260;-61
2024/02/04 05:46:38;;;;;;;53.53;17.10;;;;;;;;;;5111776;28;20333;-62
2024/02/04 05:49:03;;;;;;;49.60;17.47;;;;;;;;;;5113375;28;20065;-62
2024/02/04 05:51:29;;;;;;;54.57;18.50;;;;;;;;;;5110939;28;20269;-62
2024/02/04 05:53:54;;;;;;;52.37;16.57;;;;;;;;;;5111203;28;20033;-62
2024/02/04 05:56:20;;;;;;;52.28;18.85;;;;;;;;;;5110339;28;20115;-62
2024/02/04 05:58:46;;;;;;;57.15;21.98;;;;;;;;;;5110953;28;20054;-62
2024/02/04 06:01:12;;;;;;;71.70;22.73;;;;;;;;;;5110630;28;20052;-62
2024/02/04 06:03:37;;;;;;;65.40;22.63;;;;;;;;;;5110709;28;20039;-62
2024/02/04 06:06:02;;;;;;;63.37;22.87;;;;;;;;;;5111301;28;20137;-62
2024/02/04 06:08:29;;;;;;;66.82;21.50;;;;;;;;;;5115823;28;20028;-62
2024/02/04 06:10:54;;;;;;;61.28;20.27;;;;;;;;;;5114675;28;20069;-63
2024/02/04 06:13:19;;;;;;;63.17;21.47;;;;;;;;;;5116252;28;20024;-62
2024/02/04 06:15:45;;;;;;;61.45;19.90;;;;;;;;;;5115598;28;20039;-62
2024/02/04 06:18:11;;;;;;;52.00;17.07;;;;;;;;;;5114687;28;20096;-62
2024/02/04 06:20:36;;;;;;;47.63;17.37;;;;;;;;;;5115530;28;20268;-61
2024/02/04 06:23:02;;;;;;;51.40;18.77;;;;;;;;;;5115137;28;20044;-62
2024/02/04 06:25:27;;;;;;;50.03;18.13;;;;;;;;;;5113545;28;20071;-61
2024/02/04 06:27:53;;;;;;;56.40;18.77;;;;;;;;;;5114531;28;20541;-61
2024/02/04 06:30:18;;;;;;;55.83;19.97;;;;;;;;;;5114367;28;20036;-61
2024/02/04 06:32:43;;;;;;;49.57;17.07;;;;;;;;;;5114405;28;20016;-62
2024/02/04 06:35:08;;;;;;;63.87;19.07;;;;;;;;;;5113071;28;20264;-63
2024/02/04 06:37:34;;;;;;;60.73;18.57;;;;;;;;;;5112893;28;20051;-62
2024/02/04 06:39:59;;;;;;;45.93;17.40;;;;;;;;;;5116932;28;20043;-62
2024/02/04 06:42:25;;;;;;;51.00;18.02;;;;;;;;;;5114322;28;20040;-62
2024/02/04 06:44:50;;;;;;;68.13;21.93;;;;;;;;;;5114879;28;20036;-62
2024/02/04 06:47:16;;;;;;;46.67;17.33;;;;;;;;;;5114632;28;20292;-62
2024/02/04 06:49:47;;;;;;;59.65;19.85;;;;;;;;;;5115165;28;20047;-62
2024/02/04 06:52:13;;;;;;;48.43;18.27;;;;;;;;;;5113596;28;20031;-62
2024/02/04 06:54:39;;;;;;;58.70;18.60;;;;;;;;;;5114141;28;20263;-62
2024/02/04 06:57:04;;;;;;;54.13;18.90;;;;;;;;;;5115080;28;20272;-62
2024/02/04 06:59:30;;;;;;;53.35;17.42;;;;;;;;;;5115653;28;20047;-61
2024/02/04 07:01:55;;;;;;;47.00;17.60;;;;;;;;;;5115759;28;20074;-62
2024/02/04 07:04:24;;;;;;;55.33;17.50;;;;;;;;;;5115243;28;20024;-62
2024/02/04 07:06:50;;;;;;;47.73;15.77;;;;;;;;;;5113349;28;20060;-62
2024/02/04 07:09:15;;;;;;;46.45;17.42;;;;;;;;;;5116847;28;20318;-61
2024/02/04 07:11:41;;;;;;;56.72;17.30;;;;;;;;;;5113770;28;20761;-61
2024/02/04 07:14:08;;;;;;;63.40;18.30;;;;;;;;;;5115463;28;20024;-61
2024/02/04 07:16:33;;;;;;;60.73;17.53;;;;;;;;;;5113239;28;20043;-61
2024/02/04 07:18:59;;;;;;;45.63;14.23;;;;;;;;;;5113665;28;20273;-62
2024/02/04 07:21:24;;;;;;;52.60;15.83;;;;;;;;;;5114402;28;20027;-62
2024/02/04 07:23:50;;;;;;;51.88;17.02;;;;;;;;;;5112500;28;20016;-61
2024/02/04 07:26:15;;;;;;;48.85;16.45;;;;;;;;;;5111546;28;20040;-62
2024/02/04 07:28:41;;;;;;;50.60;14.98;;;;;;;;;;5112188;28;20027;-61
2024/02/04 07:31:06;;;;;;;54.53;15.97;;;;;;;;;;5111466;28;20024;-62
2024/02/04 07:33:32;;;;;;;45.10;14.43;;;;;;;;;;5112641;28;20039;-61
2024/02/04 07:35:57;;;;;;;51.67;15.30;;;;;;;;;;5112720;28;20031;-62
2024/02/04 07:38:23;;;;;;;47.78;13.90;;;;;;;;;;5112407;28;20324;-61
2024/02/04 07:40:48;;;;;;;39.93;15.30;;;;;;;;;;5112139;28;20040;-61
2024/02/04 07:43:14;;;;;;;49.33;14.67;;;;;;;;;;5111143;28;20265;-62
2024/02/04 07:45:39;;;;;;;41.30;14.55;;;;;;;;;;5111727;28;20081;-62
2024/02/04 07:48:05;;;;;;;33.07;13.30;;;;;;;;;;5111740;28;20065;-62
2024/02/04 07:50:30;;;;;;;47.35;12.65;;;;;;;;;;5112120;28;20055;-62
2024/02/04 07:52:56;;;;;;;37.83;13.17;;;;;;;;;;5112067;28;20028;-62
2024/02/04 07:55:21;;;;;;;36.40;12.57;;;;;;;;;;5112275;28;20028;-62
2024/02/04 07:57:47;;;;;;;42.40;12.50;;;;;;;;;;5112257;28;20064;-62
2024/02/04 08:00:13;;;;;;;44.90;13.63;;;;;;;;;;5111955;28;20261;-62
2024/02/04 08:02:39;;;;;;;24.25;7.70;;;;;;;;;;5110818;28;20256;-62
2024/02/04 08:05:05;;;;;;;22.30;7.63;;;;;;;;;;5112963;28;20038;-62
2024/02/04 08:07:31;;;;;;;25.70;8.65;;;;;;;;;;5111753;28;20023;-62
2024/02/04 08:09:56;;;;;;;26.40;7.93;;;;;;;;;;5110873;28;20039;-62
2024/02/04 08:12:21;;;;;;;17.20;7.17;;;;;;;;;;5111884;28;20060;-61
2024/02/04 08:14:47;;;;;;;16.70;6.77;;;;;;;;;;5110576;28;20256;-61
2024/02/04 08:17:12;;;;;;;23.43;7.57;;;;;;;;;;5113137;28;20285;-62
2024/02/04 08:19:38;;;;;;;22.57;8.13;;;;;;;;;;5112145;28;20268;-62
2024/02/04 08:22:04;;;;;;;29.43;11.27;;;;;;;;;;5110744;28;20270;-61
2024/02/04 08:24:31;;;;;;;30.23;10.57;;;;;;;;;;5111443;28;20038;-62
2024/02/04 08:26:57;;;;;;;39.83;11.53;;;;;;;;;;5110079;28;20036;-61
2024/02/04 08:29:23;;;;;;;35.88;9.60;;;;;;;;;;5111634;28;20260;-62
2024/02/04 08:31:48;;;;;;;42.17;12.17;;;;;;;;;;5112425;28;20096;-61
2024/02/04 08:34:14;;;;;;;34.95;12.18;;;;;;;;;;5111620;28;20030;-62
2024/02/04 08:36:39;;;;;;;46.63;13.67;;;;;;;;;;5109440;28;20039;-62
2024/02/04 08:39:04;;;;;;;37.00;12.03;;;;;;;;;;5111082;28;20502;-62
2024/02/04 08:41:30;;;;;;;38.93;12.53;;;;;;;;;;5110972;28;20008;-62
2024/02/04 08:43:55;;;;;;;41.17;14.07;;;;;;;;;;5111225;28;20028;-61
2024/02/04 08:46:20;;;;;;;29.50;11.37;;;;;;;;;;5109516;28;20098;-62
2024/02/04 08:48:46;;;;;;;42.47;11.70;;;;;;;;;;5110745;28;20043;-61
2024/02/04 08:51:12;;;;;;;38.97;12.40;;;;;;;;;;5109135;28;20055;-61
2024/02/04 08:53:37;;;;;;;;;;;;;;;;;;5110736;28;20028;-63
2024/02/04 08:56:03;;;;;;;34.47;10.90;;;;;;;;;;5110356;28;19908;-61
2024/02/04 08:58:29;;;;;;;31.70;9.52;;;;;;;;;;5107877;28;20035;-62
2024/02/04 09:00:55;;;;;;;35.33;10.90;;;;;;;;;;5110594;28;20039;-61
2024/02/04 09:03:20;;;;;;;31.23;9.47;;;;;;;;;;5110470;28;20032;-62
2024/02/04 09:05:46;;;;;;;26.30;9.73;;;;;;;;;;5110198;28;20264;-61
2024/02/04 09:08:11;;;;;;;28.25;10.20;;;;;;;;;;5110594;28;20280;-62
2024/02/04 09:10:37;;;;;;;33.70;10.37;;;;;;;;;;5111372;28;20020;-62
2024/02/04 09:13:02;;;;;;;29.47;10.20;;;;;;;;;;5112076;28;20287;-61
2024/02/04 09:15:27;;;;;;;31.50;9.90;;;;;;;;;;5111161;28;20051;-61
2024/02/04 09:17:53;;;;;;;26.75;9.35;;;;;;;;;;5111352;28;20071;-61
2024/02/04 09:20:18;;;;;;;28.73;10.47;;;;;;;;;;5113700;28;20040;-61
2024/02/04 09:22:44;;;;;;;24.63;8.93;;;;;;;;;;5111537;28;20440;-61
2024/02/04 09:25:09;;;;;;;25.23;9.80;;;;;;;;;;5112703;28;20028;-61
2024/02/04 09:27:35;;;;;;;45.60;9.93;;;;;;;;;;5113174;28;20032;-61
2024/02/04 09:30:01;;;;;;;22.70;7.18;;;;;;;;;;5111645;28;20020;-61
2024/02/04 09:32:26;;;;;;;23.27;9.38;;;;;;;;;;5112012;28;20093;-61
2024/02/04 09:34:52;;;;;;;22.38;7.55;;;;;;;;;;5109468;28;20051;-62
2024/02/04 09:37:17;;;;;;;18.35;5.93;;;;;;;;;;5108489;28;20047;-61
2024/02/04 09:39:43;;;;;;;22.30;7.55;;;;;;;;;;5110461;28;20100;-61
2024/02/04 09:42:08;;;;;;;17.07;6.57;;;;;;;;;;5116473;28;20044;-61
2024/02/04 09:44:35;;;;;;;20.98;6.63;;;;;;;;;;5113164;28;20024;-61
2024/02/04 09:47:01;;;;;;;17.10;6.57;;;;;;;;;;5113508;28;20038;-61
2024/02/04 09:49:26;;;;;;;25.57;6.53;;;;;;;;;;5114566;28;20261;-61
2024/02/04 09:51:53;;;;;;;16.02;6.13;;;;;;;;;;5113884;28;20264;-62
2024/02/04 09:54:18;;;;;;;16.07;6.33;;;;;;;;;;5113559;28;20034;-62
2024/02/04 09:56:44;;;;;;;16.53;5.87;;;;;;;;;;5118988;28;20269;-61
2024/02/04 09:59:09;;;;;;;14.35;5.10;;;;;;;;;;5120820;28;20275;-63
2024/02/04 10:01:35;;;;;;;27.13;7.77;;;;;;;;;;5116410;28;20039;-62
2024/02/04 10:04:00;;;;;;;20.45;5.60;;;;;;;;;;5117053;28;20077;-61
2024/02/04 10:06:26;;;;;;;11.13;4.50;;;;;;;;;;5115006;28;20092;-62
2024/02/04 10:08:52;;;;;;;20.40;5.43;;;;;;;;;;5113925;28;20047;-61
2024/02/04 10:11:17;;;;;;;16.03;4.73;;;;;;;;;;5114837;28;20046;-62
2024/02/04 10:13:46;;;;;;;19.48;4.40;;;;;;;;;;5112533;28;20079;-61
2024/02/04 10:16:13;;;;;;;11.10;4.23;;;;;;;;;;5114780;28;20028;-61
2024/02/04 10:18:41;;;;;;;21.70;5.00;;;;;;;;;;5115999;28;20289;-61
2024/02/04 10:21:14;;;;;;;12.17;3.67;;;;;;;;;;5113973;28;20058;-61
2024/02/04 10:23:39;;;;;;;10.40;3.97;;;;;;;;;;5115127;28;20271;-62
2024/02/04 10:26:04;;;;;;;17.90;4.47;;;;;;;;;;5117151;28;20292;-62
2024/02/04 10:28:30;;;;;;;13.07;4.05;;;;;;;;;;5114027;28;20035;-63
2024/02/04 10:30:56;;;;;;;17.75;4.55;;;;;;;;;;5114732;28;20032;-62
2024/02/04 10:33:21;;;;;;;13.37;3.73;;;;;;;;;;5114493;28;20032;-62
2024/02/04 10:35:46;;;;;;;5.37;2.57;;;;;;;;;;5114071;28;20016;-62
2024/02/04 10:38:15;;;;;;;6.73;1.90;;;;;;;;;;5112064;28;20035;-62
2024/02/04 10:40:40;;;;;;;5.27;1.80;;;;;;;;;;5114014;28;20028;-62
2024/02/04 10:43:07;;;;;;;2.38;1.52;;;;;;;;;;5113358;28;20294;-62
2024/02/04 10:45:34;;;;;;;2.22;1.35;;;;;;;;;;5114153;28;20039;-62
2024/02/04 10:47:59;;;;;;;;;;;;;;;;;;5115569;28;20492;-61
2024/02/04 10:50:26;;;;;;;14.70;3.57;;;;;;;;;;5111552;28;19916;-61
2024/02/04 10:52:51;;;;;;;9.57;2.90;;;;;;;;;;5111535;28;20028;-61
2024/02/04 10:55:17;;;;;;;5.43;2.80;;;;;;;;;;5113361;28;20273;-62
2024/02/04 10:57:43;;;;;;;5.23;2.80;;;;;;;;;;5114200;28;20063;-61
2024/02/04 11:00:11;;;;;;;10.90;3.43;;;;;;;;;;5113437;28;20023;-62
2024/02/04 11:02:37;;;;;;;6.83;3.43;;;;;;;;;;5112185;28;20297;-62
2024/02/04 11:05:04;;;;;;;8.65;3.10;;;;;;;;;;5112758;28;20298;-61
2024/02/04 11:07:31;;;;;;;10.13;3.50;;;;;;;;;;5113688;28;20039;-62
2024/02/04 11:09:57;;;;;;;11.50;3.37;;;;;;;;;;5112876;28;20265;-63
2024/02/04 11:12:23;;;;;;;17.10;4.30;;;;;;;;;;5112821;28;20263;-62
2024/02/04 11:14:51;;;;;;;10.55;4.43;;;;;;;;;;5111251;28;20271;-62
2024/02/04 11:17:21;;;;;;;21.50;5.40;;;;;;;;;;5112238;28;20057;-62
2024/02/04 11:20:13;;;;;;;14.37;4.33;;;;;;;;;;5113052;28;20293;-62
2024/02/04 11:22:44;;;;;;;17.83;5.53;;;;;;;;;;5110131;28;20252;-62
2024/02/04 11:25:19;;;;;;;16.97;5.20;;;;;;;;;;5112918;28;20296;-62
2024/02/04 11:27:45;;;;;;;25.37;6.10;;;;;;;;;;5113768;28;20284;-62
2024/02/04 11:30:11;;;;;;;25.03;6.53;;;;;;;;;;5113644;28;20267;-62
2024/02/04 11:32:36;;;;;;;24.53;7.43;;;;;;;;;;5114236;28;20259;-62
2024/02/04 11:35:02;;;;;;;29.30;8.73;;;;;;;;;;5114831;28;20059;-62
2024/02/04 11:37:28;;;;;;;29.98;8.57;;;;;;;;;;5114295;28;20020;-63
2024/02/04 11:39:57;;;;;;;27.42;7.25;;;;;;;;;;5112111;28;20050;-62
2024/02/04 11:42:23;;;;;;;23.43;7.37;;;;;;;;;;5112517;28;20027;-63
2024/02/04 11:44:49;;;;;;;27.17;6.60;;;;;;;;;;5112646;28;20264;-61
2024/02/04 11:47:25;;;;;;;27.45;7.90;;;;;;;;;;5112856;28;20062;-61
2024/02/04 11:49:57;;;;;;;28.20;8.70;;;;;;;;;;5112182;28;20070;-61
2024/02/04 11:52:23;;;;;;;21.50;8.20;;;;;;;;;;5110410;28;20324;-64
2024/02/04 11:54:49;;;;;;;25.83;6.63;;;;;;;;;;5111919;28;20277;-61
2024/02/04 11:57:14;;;;;;;34.67;10.13;;;;;;;;;;5111847;28;20277;-62
2024/02/04 11:59:39;;;;;;;28.73;6.80;;;;;;;;;;5115159;28;20038;-61
2024/02/04 12:02:06;;;;;;;29.03;9.13;;;;;;;;;;5116855;28;20057;-61
2024/02/04 12:04:31;;;;;;;;;;;;;;;;;;5116261;28;20096;-61
2024/02/04 12:06:57;;;;;;;39.60;10.67;;;;;;;;;;5112129;28;19927;-62
2024/02/04 12:09:23;;;;;;;26.50;9.75;;;;;;;;;;5115542;28;20098;-62
2024/02/04 12:11:49;;;;;;;30.85;10.65;;;;;;;;;;5113250;28;20213;-62
2024/02/04 12:14:15;;;;;;;43.53;10.27;;;;;;;;;;5116869;28;20036;-61
2024/02/04 12:16:41;;;;;;;53.07;11.80;;;;;;;;;;5113566;28;20028;-61
2024/02/04 12:19:07;;;;;;;30.83;9.52;;;;;;;;;;5116146;28;20336;-61
2024/02/04 12:21:33;;;;;;;44.67;13.15;;;;;;;;;;5112606;28;20055;-62
2024/02/04 12:23:58;;;;;;;32.97;11.27;;;;;;;;;;5113602;28;20020;-61
2024/02/04 12:26:24;;;;;;;34.70;9.75;;;;;;;;;;5113395;28;20054;-62
2024/02/04 12:28:52;;;;;;;37.90;10.97;;;;;;;;;;5110989;28;20043;-61
2024/02/04 12:31:24;;;;;;;42.20;10.20;;;;;;;;;;5113201;28;20519;-62
2024/02/04 12:34:00;;;;;;;29.77;9.23;;;;;;;;;;5109640;28;20273;-62
2024/02/04 12:36:29;;;;;;;33.10;9.05;;;;;;;;;;5109364;28;20271;-61
2024/02/04 12:38:55;;;;;;;33.43;9.73;;;;;;;;;;5111054;28;20103;-62
2024/02/04 12:41:22;;;;;;;;;;;;;;;;;;5107747;28;20284;-62
2024/02/04 12:43:55;;;;;;;28.07;9.73;;;;;;;;;;5111514;28;19929;-62
2024/02/04 12:46:21;;;;;;;28.93;9.87;;;;;;;;;;5110449;28;20257;-62
2024/02/04 12:48:51;;;;;;;44.28;11.02;;;;;;;;;;5110373;28;20287;-62
2024/02/04 12:51:26;;;;;;;46.60;9.70;;;;;;;;;;5111886;28;20032;-61
2024/02/04 12:54:09;;;;;;;33.97;10.33;;;;;;;;;;5114373;28;20244;-62
2024/02/04 12:56:41;;;;;;;32.03;9.00;;;;;;;;;;5112909;28;20261;-62
2024/02/04 12:59:08;;;;;;;34.97;10.57;;;;;;;;;;5111908;28;20271;-62
2024/02/04 13:01:33;;;;;;;26.83;8.88;;;;;;;;;;5110090;28;20260;-62
2024/02/04 13:03:59;;;;;;;31.77;11.43;;;;;;;;;;5111172;28;20059;-67
2024/02/04 13:06:24;;;;;;;31.98;8.77;;;;;;;;;;5109943;28;20034;-63
2024/02/04 13:08:54;;;;;;;29.67;9.38;;;;;;;;;;5110981;28;20040;-62
2024/02/04 13:11:20;;;;;;;29.23;9.10;;;;;;;;;;5111074;28;20016;-61
2024/02/04 13:13:45;;;;;;;36.67;10.37;;;;;;;;;;5111483;28;20264;-62
2024/02/04 13:16:11;;;;;;;34.88;10.98;;;;;;;;;;5110964;28;20043;-61
2024/02/04 13:18:36;;;;;;;27.67;7.55;;;;;;;;;;5111239;28;20092;-62
2024/02/04 13:21:01;;;;;;;27.20;7.73;;;;;;;;;;5111017;28;20040;-62
2024/02/04 13:23:27;;;;;;;35.28;8.75;;;;;;;;;;5110837;28;20085;-62
2024/02/04 13:25:53;;;;;;;30.17;7.57;;;;;;;;;;5113621;28;20055;-62
2024/02/04 13:28:18;;;;;;;30.97;8.27;;;;;;;;;;5111406;28;20040;-62
2024/02/04 13:30:44;;;;;;;32.05;9.02;;;;;;;;;;5109797;28;20036;-62
2024/02/04 13:33:09;;;;;;;26.73;7.27;;;;;;;;;;5107730;28;20038;-61
2024/02/04 13:35:35;;;;;;;25.75;7.00;;;;;;;;;;5109148;28;20032;-61
2024/02/04 13:38:00;;;;;;;33.47;8.60;;;;;;;;;;5110984;28;20036;-62
2024/02/04 13:40:26;;;;;;;26.77;8.27;;;;;;;;;;5109042;28;20020;-64
2024/02/04 13:42:52;;;;;;;27.30;7.97;;;;;;;;;;5109993;28;20062;-63
2024/02/04 13:45:18;;;;;;;38.78;8.30;;;;;;;;;;5108972;28;20036;-62
2024/02/04 13:47:43;;;;;;;22.48;6.30;;;;;;;;;;5109030;28;20037;-63
2024/02/04 13:50:11;;;;;;;41.90;8.27;;;;;;;;;;5109107;28;20029;-62
2024/02/04 13:52:37;;;;;;;27.67;8.17;;;;;;;;;;5110025;28;20295;-62
2024/02/04 13:55:05;;;;;;;26.00;5.85;;;;;;;;;;5108914;28;20264;-61
2024/02/04 13:57:30;;;;;;;26.13;5.83;;;;;;;;;;5109805;28;20044;-61
2024/02/04 13:59:56;;;;;;;21.13;6.17;;;;;;;;;;5110096;28;20359;-62
2024/02/04 14:02:23;;;;;;;28.80;6.40;;;;;;;;;;5125133;28;20276;-62
2024/02/04 14:04:48;;;;;;;26.23;6.70;;;;;;;;;;5108806;28;20269;-61
2024/02/04 14:07:14;;;;;;;23.25;5.47;;;;;;;;;;5111473;28;20326;-61
2024/02/04 14:09:40;;;;;;;38.13;7.35;;;;;;;;;;5107951;28;20058;-61
2024/02/04 14:12:06;;;;;;;39.17;8.07;;;;;;;;;;5108801;28;20044;-61
2024/02/04 14:14:32;;;;;;;28.40;5.47;;;;;;;;;;5107198;28;20024;-63
2024/02/04 14:16:57;;;;;;;26.73;5.20;;;;;;;;;;5107911;28;20107;-63